Time;durP1;ratioP1;P1;durP2;ratioP2;P2;SDS_P1;SDS_P2;PMS_P1;PMS_P2;Temp;Humidity;BMP_temperature;BMP_pressure;BME280_temperature;BME280_humidity;BME280_pressure;Samples;Min_cycle;Max_cycle;Signal;HPM_P1;HPM_P2
2022/08/25 00:01:29;;;;;;;6.47;3.42;;;23.50;52.20;;;;;;5056042;28;20066;-39
2022/08/25 00:03:56;;;;;;;7.13;2.88;;;23.40;52.30;;;;;;5055927;28;20037;-38
2022/08/25 00:06:21;;;;;;;5.65;3.20;;;23.40;52.40;;;;;;5054504;28;20028;-38
2022/08/25 00:08:47;;;;;;;5.40;3.22;;;23.40;52.30;;;;;;5055859;28;20397;-39
2022/08/25 00:11:22;;;;;;;5.18;3.22;;;23.30;52.50;;;;;;5055493;28;20037;-38
2022/08/25 00:13:54;;;;;;;4.50;2.20;;;23.30;52.40;;;;;;5055781;28;20029;-38
2022/08/25 00:16:22;;;;;;;5.63;2.55;;;23.30;52.50;;;;;;5055454;28;20041;-38
2022/08/25 00:18:51;;;;;;;9.88;3.05;;;23.30;52.70;;;;;;5055762;28;20465;-38
2022/08/25 00:21:17;;;;;;;9.30;3.08;;;23.30;52.50;;;;;;5054183;28;20116;-38
2022/08/25 00:23:44;;;;;;;3.35;2.97;;;23.20;52.90;;;;;;5055405;28;20048;-38
2022/08/25 00:26:10;;;;;;;4.07;2.60;;;23.20;52.80;;;;;;5055363;28;20465;-39
2022/08/25 00:28:36;;;;;;;5.40;3.42;;;23.30;52.70;;;;;;5055604;28;20037;-38
2022/08/25 00:31:03;;;;;;;3.83;2.55;;;23.20;52.70;;;;;;5055284;28;20025;-39
2022/08/25 00:33:30;;;;;;;9.50;2.78;;;23.10;52.90;;;;;;5055157;28;20017;-39
2022/08/25 00:35:56;;;;;;;3.03;2.33;;;23.00;53.10;;;;;;5055310;28;20513;-38
2022/08/25 00:38:22;;;;;;;4.13;2.40;;;23.00;53.10;;;;;;5055195;28;20021;-38
2022/08/25 00:41:04;;;;;;;6.57;3.00;;;22.90;53.20;;;;;;5053742;28;20017;-38
2022/08/25 00:43:36;;;;;;;4.05;2.65;;;22.90;53.30;;;;;;5055356;28;20028;-38
2022/08/25 00:46:03;;;;;;;3.85;2.28;;;22.90;53.40;;;;;;5054892;28;20033;-38
2022/08/25 00:48:28;;;;;;;4.13;2.40;;;22.90;53.40;;;;;;5055214;28;20516;-38
2022/08/25 00:50:54;;;;;;;5.32;2.75;;;22.90;53.40;;;;;;5055027;28;20064;-38
2022/08/25 00:53:20;;;;;;;4.65;2.80;;;22.90;53.50;;;;;;5054932;28;20384;-39
2022/08/25 00:55:46;;;;;;;6.07;2.95;;;22.80;53.50;;;;;;5054507;28;20473;-37
2022/08/25 00:58:23;;;;;;;6.90;3.00;;;22.80;53.50;;;;;;5054771;28;20058;-38
2022/08/25 01:00:51;;;;;;;6.35;3.05;;;22.80;53.70;;;;;;5054668;28;20104;-37
2022/08/25 01:03:18;;;;;;;4.22;2.72;;;22.80;53.90;;;;;;5053271;28;20449;-38
2022/08/25 01:05:45;;;;;;;7.00;2.90;;;22.80;54.00;;;;;;5054730;28;20047;-45
2022/08/25 01:08:12;;;;;;;6.43;2.97;;;22.70;53.90;;;;;;5054755;28;20024;-38
2022/08/25 01:10:41;;;;;;;6.00;2.78;;;22.70;54.10;;;;;;5054648;28;20081;-38
2022/08/25 01:13:13;;;;;;;7.82;2.60;;;22.60;54.10;;;;;;5054572;28;20052;-38
2022/08/25 01:15:39;;;;;;;6.75;2.60;;;22.60;54.20;;;;;;5055328;28;20086;-39
2022/08/25 01:18:05;;;;;;;6.45;2.97;;;22.60;54.30;;;;;;5054091;28;20029;-39
2022/08/25 01:20:31;;;;;;;8.40;2.33;;;22.60;54.40;;;;;;5054228;28;20025;-38
2022/08/25 01:22:58;;;;;;;4.75;2.80;;;22.50;54.50;;;;;;5052860;28;20025;-39
2022/08/25 01:25:32;;;;;;;5.53;2.80;;;22.50;54.60;;;;;;5053394;28;20058;-38
2022/08/25 01:27:57;;;;;;;7.93;2.45;;;22.50;54.80;;;;;;5052811;28;20028;-38
2022/08/25 01:30:23;;;;;;;4.95;3.10;;;22.50;54.50;;;;;;5054230;28;20040;-39
2022/08/25 01:32:49;;;;;;;13.38;3.35;;;22.40;54.90;;;;;;5054221;28;20415;-38
2022/08/25 01:35:15;;;;;;;5.90;2.97;;;22.40;55.00;;;;;;5054609;28;20520;-38
2022/08/25 01:37:41;;;;;;;8.00;3.35;;;22.40;54.80;;;;;;5054553;28;20057;-40
2022/08/25 01:40:07;;;;;;;5.35;2.67;;;22.40;55.10;;;;;;5054105;28;20025;-39
2022/08/25 01:42:56;;;;;;;8.02;2.95;;;22.30;55.40;;;;;;5054449;28;20017;-38
2022/08/25 01:45:22;;;;;;;6.07;2.60;;;22.30;55.40;;;;;;5053307;28;20086;-38
2022/08/25 01:47:47;;;;;;;6.78;3.58;;;22.20;55.60;;;;;;5054336;28;20428;-42
2022/08/25 01:50:13;;;;;;;5.15;2.63;;;22.20;55.70;;;;;;5052888;28;20024;-38
2022/08/25 01:52:51;;;;;;;5.63;2.60;;;22.10;55.80;;;;;;5054517;28;20078;-38
2022/08/25 01:55:17;;;;;;;3.55;2.55;;;22.10;55.80;;;;;;5054511;28;20048;-38
2022/08/25 01:57:43;;;;;;;6.85;2.72;;;22.10;55.80;;;;;;5054513;28;20017;-39
2022/08/25 02:00:12;;;;;;;7.68;2.70;;;22.10;56.00;;;;;;5054655;28;20021;-38
2022/08/25 02:02:38;;;;;;;5.30;2.60;;;22.10;56.00;;;;;;5054021;28;20100;-38
2022/08/25 02:05:04;;;;;;;5.13;2.55;;;22.00;56.10;;;;;;5053557;28;20604;-39
2022/08/25 02:07:30;;;;;;;4.95;2.83;;;22.00;56.20;;;;;;5053546;28;20036;-38
2022/08/25 02:09:56;;;;;;;5.15;2.40;;;22.00;56.20;;;;;;5053545;28;20025;-39
2022/08/25 02:12:22;;;;;;;6.10;3.05;;;21.90;56.40;;;;;;5053877;28;20025;-38
2022/08/25 02:14:47;;;;;;;4.45;2.85;;;21.90;56.50;;;;;;5053536;28;20376;-38
2022/08/25 02:17:13;;;;;;;4.63;2.67;;;21.80;56.60;;;;;;5053422;28;20432;-38
2022/08/25 02:19:39;;;;;;;4.85;3.05;;;21.80;56.70;;;;;;5053609;28;20427;-38
2022/08/25 02:22:05;;;;;;;6.57;3.38;;;21.80;56.70;;;;;;5053178;28;20385;-38
2022/08/25 02:24:31;;;;;;;6.05;2.72;;;21.80;56.80;;;;;;5052191;28;20083;-39
2022/08/25 02:26:57;;;;;;;5.85;2.67;;;21.80;56.70;;;;;;5053187;28;20029;-39
2022/08/25 02:29:23;;;;;;;7.35;2.58;;;21.80;56.90;;;;;;5051888;28;20025;-38
2022/08/25 02:31:49;;;;;;;4.45;2.72;;;21.80;56.80;;;;;;5052986;28;20100;-38
2022/08/25 02:34:15;;;;;;;5.88;2.92;;;21.80;56.80;;;;;;5052789;28;20116;-38
2022/08/25 02:36:42;;;;;;;5.88;2.67;;;21.80;57.00;;;;;;5052944;28;20127;-39
2022/08/25 02:39:09;;;;;;;3.58;2.53;;;21.80;57.10;;;;;;5053171;28;20025;-39
2022/08/25 02:41:35;;;;;;;7.20;2.60;;;21.70;57.20;;;;;;5052769;28;20157;-39
2022/08/25 02:44:03;;;;;;;4.82;2.70;;;21.70;57.30;;;;;;5052764;28;20033;-38
2022/08/25 02:46:29;;;;;;;3.72;2.53;;;21.70;57.40;;;;;;5053104;28;20531;-38
2022/08/25 02:48:56;;;;;;;6.57;3.47;;;21.60;57.50;;;;;;5053004;28;20032;-38
2022/08/25 02:51:24;;;;;;;5.85;3.50;;;21.60;57.60;;;;;;5053280;28;20129;-38
2022/08/25 02:53:49;;;;;;;4.45;2.85;;;21.60;57.80;;;;;;5052702;28;20048;-38
2022/08/25 02:56:17;;;;;;;7.18;3.65;;;21.50;57.70;;;;;;5052702;28;20025;-38
2022/08/25 02:58:44;;;;;;;4.97;3.15;;;21.50;58.00;;;;;;5052457;28;20025;-38
2022/08/25 03:01:11;;;;;;;9.25;3.72;;;21.60;57.80;;;;;;5052484;28;20105;-38
2022/08/25 03:03:39;;;;;;;5.20;2.83;;;21.50;57.90;;;;;;5052829;28;20032;-39
2022/08/25 03:06:09;;;;;;;5.82;3.35;;;21.50;57.90;;;;;;5052891;28;20061;-39
2022/08/25 03:08:36;;;;;;;5.72;2.97;;;21.50;58.10;;;;;;5052759;28;20025;-38
2022/08/25 03:11:02;;;;;;;11.32;4.00;;;21.40;58.20;;;;;;5050904;28;20120;-38
2022/08/25 03:13:28;;;;;;;9.35;3.95;;;21.30;58.40;;;;;;5052679;28;20021;-38
2022/08/25 03:15:53;;;;;;;8.88;3.55;;;21.30;58.50;;;;;;5053353;28;20031;-38
2022/08/25 03:18:19;;;;;;;8.15;2.88;;;21.30;58.60;;;;;;5056397;28;20453;-38
2022/08/25 03:20:45;;;;;;;5.93;3.92;;;21.30;58.80;;;;;;5056692;28;20028;-38
2022/08/25 03:23:11;;;;;;;4.45;3.25;;;21.30;58.80;;;;;;5055329;28;20024;-39
2022/08/25 03:28:25;;;;;;;5.53;3.35;;;21.30;59.00;;;;;;5056793;28;20072;-39
2022/08/25 03:30:52;;;;;;;8.32;3.28;;;21.20;58.90;;;;;;5056343;28;20035;-39
2022/08/25 03:33:18;;;;;;;5.30;2.72;;;21.20;59.30;;;;;;5056365;28;20029;-38
2022/08/25 03:35:44;;;;;;;8.45;3.67;;;21.20;59.30;;;;;;5054557;28;20036;-38
2022/08/25 03:38:10;;;;;;;8.20;3.17;;;21.20;59.20;;;;;;5056289;28;20472;-39
2022/08/25 03:40:36;;;;;;;5.75;3.17;;;21.20;59.20;;;;;;5055875;28;20028;-39
2022/08/25 03:43:02;;;;;;;5.75;3.03;;;21.10;59.50;;;;;;5055855;28;20036;-39
2022/08/25 03:45:28;;;;;;;6.53;4.10;;;21.10;59.50;;;;;;5056447;28;20025;-39
2022/08/25 03:47:54;;;;;;;3.30;2.78;;;21.10;59.60;;;;;;5055903;28;20500;-39
2022/08/25 03:50:21;;;;;;;9.10;2.90;;;21.10;59.50;;;;;;5055947;28;20384;-39
2022/08/25 03:52:54;;;;;;;9.25;2.90;;;21.10;59.50;;;;;;5056007;28;20043;-39
2022/08/25 03:55:22;;;;;;;5.63;2.85;;;21.00;59.60;;;;;;5055780;28;20440;-39
2022/08/25 03:57:48;;;;;;;8.15;2.83;;;21.00;59.80;;;;;;5056164;28;20031;-39
2022/08/25 04:00:14;;;;;;;7.80;3.65;;;20.90;59.80;;;;;;5056538;28;20017;-39
2022/08/25 04:02:40;;;;;;;4.45;3.10;;;21.00;59.90;;;;;;5055809;28;20021;-39
2022/08/25 04:05:07;;;;;;;7.07;3.08;;;20.90;60.10;;;;;;5056269;28;20025;-40
2022/08/25 04:07:33;;;;;;;5.60;2.90;;;20.80;60.20;;;;;;5055734;28;20025;-38
2022/08/25 04:09:58;;;;;;;5.05;3.40;;;20.80;60.30;;;;;;5055676;28;20032;-38
2022/08/25 04:12:24;;;;;;;5.90;3.38;;;20.80;60.40;;;;;;5054513;28;20057;-38
2022/08/25 18:52:22;;;;;;;8.15;5.55;;;28.40;44.40;;;;;;5091001;27;20450;-47
2022/08/25 18:54:48;;;;;;;8.45;5.63;;;28.40;44.60;;;;;;5090733;28;20036;-39
2022/08/25 18:57:14;;;;;;;10.20;5.93;;;28.40;44.60;;;;;;5090292;28;20074;-41
2022/08/25 18:59:41;;;;;;;9.98;5.80;;;28.40;44.70;;;;;;5089231;28;20025;-39
2022/08/25 19:02:09;;;;;;;7.07;5.38;;;28.30;44.80;;;;;;5089645;28;20033;-39
2022/08/25 19:04:36;;;;;;;9.15;4.97;;;28.30;44.70;;;;;;5090338;28;20025;-40
2022/08/25 19:07:03;;;;;;;8.40;5.00;;;28.30;44.70;;;;;;5088776;28;20028;-41
2022/08/25 19:09:28;;;;;;;8.40;4.68;;;28.30;44.80;;;;;;5088777;28;20028;-39
2022/08/25 19:11:54;;;;;;;7.80;4.75;;;28.30;44.90;;;;;;5088519;28;20059;-38
2022/08/25 19:14:20;;;;;;;7.47;5.43;;;28.20;44.90;;;;;;5089638;28;20027;-38
2022/08/25 19:16:45;;;;;;;9.65;5.25;;;28.20;45.20;;;;;;5089500;28;20039;-45
2022/08/25 19:19:12;;;;;;;8.02;5.13;;;28.10;45.10;;;;;;5090105;28;20562;-38
2022/08/25 19:21:39;;;;;;;6.22;4.78;;;28.10;45.20;;;;;;5088357;28;20032;-38
2022/08/25 19:24:06;;;;;;;7.15;4.75;;;28.00;45.30;;;;;;5089864;28;20118;-39
2022/08/25 19:26:34;;;;;;;9.68;4.53;;;28.00;45.40;;;;;;5088935;28;20028;-39
2022/08/25 19:29:04;;;;;;;11.27;6.13;;;27.90;45.50;;;;;;5089754;28;20024;-39
2022/08/25 19:31:29;;;;;;;8.17;4.40;;;27.90;45.60;;;;;;5089580;28;20403;-40
2022/08/25 19:33:57;;;;;;;9.95;5.22;;;27.80;45.80;;;;;;5088284;28;20024;-38
2022/08/25 19:36:25;;;;;;;9.82;5.07;;;27.80;45.90;;;;;;5089627;28;20111;-39
2022/08/25 19:38:52;;;;;;;9.50;4.40;;;27.70;46.00;;;;;;5090428;28;20025;-39
2022/08/25 19:41:19;;;;;;;8.10;4.53;;;27.70;46.00;;;;;;5089571;28;20020;-38
2022/08/25 19:43:46;;;;;;;9.20;4.32;;;27.70;46.10;;;;;;5087971;28;20024;-38
2022/08/25 19:46:12;;;;;;;8.93;4.90;;;27.70;46.20;;;;;;5088086;28;20451;-40
2022/08/25 19:48:38;;;;;;;11.27;5.50;;;27.60;46.30;;;;;;5087766;28;20020;-38
2022/08/25 19:51:04;;;;;;;8.32;5.32;;;27.50;46.30;;;;;;5087380;28;20377;-39
2022/08/25 19:53:29;;;;;;;7.93;4.28;;;27.60;46.40;;;;;;5089312;28;20025;-38
2022/08/25 19:55:58;;;;;;;6.22;4.55;;;27.60;46.40;;;;;;5089555;28;20073;-39
2022/08/25 19:58:27;;;;;;;14.48;4.72;;;27.50;46.40;;;;;;5089294;28;20099;-39
2022/08/25 20:00:53;;;;;;;6.73;5.00;;;27.50;46.40;;;;;;5089296;28;20024;-39
2022/08/25 20:03:22;;;;;;;8.65;4.65;;;27.50;46.60;;;;;;5078590;28;20411;-39
2022/08/25 20:05:48;;;;;;;7.85;4.82;;;27.40;46.70;;;;;;5076385;28;20063;-41
2022/08/25 20:08:14;;;;;;;9.57;4.68;;;27.30;46.70;;;;;;5074589;28;20020;-40
2022/08/25 20:10:40;;;;;;;10.57;4.18;;;27.30;46.90;;;;;;5075825;28;20035;-39
2022/08/25 20:13:06;;;;;;;12.73;4.82;;;27.30;47.20;;;;;;5076121;28;20091;-40
2022/08/25 20:15:33;;;;;;;10.45;5.07;;;27.20;47.30;;;;;;5076062;28;20094;-39
2022/08/25 20:17:59;;;;;;;7.45;4.40;;;27.20;47.40;;;;;;5057943;28;20055;-38
2022/08/25 20:20:25;;;;;;;8.20;4.80;;;27.10;47.60;;;;;;5075638;28;20028;-38
2022/08/25 20:22:51;;;;;;;7.63;4.68;;;27.10;47.60;;;;;;5075617;28;20035;-38
2022/08/25 20:25:23;;;;;;;9.80;4.72;;;27.00;47.80;;;;;;5075869;28;20020;-38
2022/08/25 20:27:52;;;;;;;7.72;4.63;;;27.00;48.10;;;;;;5075416;28;20028;-39
2022/08/25 20:30:27;;;;;;;10.13;4.30;;;26.90;48.20;;;;;;5075347;28;20472;-39
2022/08/25 20:32:54;;;;;;;7.18;4.60;;;26.80;48.40;;;;;;5075435;28;20407;-38
2022/08/25 20:35:21;;;;;;;10.50;4.78;;;26.80;48.60;;;;;;5075057;28;20404;-39
2022/08/25 20:37:49;;;;;;;12.25;5.85;;;26.70;48.80;;;;;;5075142;28;20380;-39
2022/08/25 20:40:18;;;;;;;8.80;4.63;;;26.70;49.10;;;;;;5075143;28;20032;-39
2022/08/25 20:42:44;;;;;;;9.65;4.68;;;26.60;49.20;;;;;;5075200;28;20436;-38
2022/08/25 20:45:11;;;;;;;6.35;4.13;;;26.50;49.50;;;;;;5075454;28;20108;-38
2022/08/25 20:47:37;;;;;;;6.78;4.65;;;26.40;49.70;;;;;;5074986;28;20027;-41
2022/08/25 20:50:04;;;;;;;11.70;5.85;;;26.40;49.80;;;;;;5075026;28;20066;-39
2022/08/25 20:52:30;;;;;;;7.10;4.35;;;26.30;50.00;;;;;;5075267;28;20055;-40
2022/08/25 20:54:56;;;;;;;12.23;5.63;;;26.30;50.10;;;;;;5074802;28;20020;-38
2022/08/25 20:57:22;;;;;;;11.02;4.85;;;26.30;50.30;;;;;;5073697;28;20020;-38
2022/08/25 20:59:48;;;;;;;6.10;4.28;;;26.20;50.50;;;;;;5074708;28;20099;-38
2022/08/25 21:02:15;;;;;;;14.13;5.50;;;26.20;50.70;;;;;;5075057;28;20107;-39
2022/08/25 21:04:42;;;;;;;8.38;6.18;;;26.10;50.60;;;;;;5074724;28;20016;-38
2022/08/25 21:07:08;;;;;;;6.18;4.68;;;26.10;50.70;;;;;;5074415;28;20112;-38
2022/08/25 21:09:35;;;;;;;7.65;4.03;;;26.10;50.80;;;;;;5075277;28;20082;-40
2022/08/25 21:12:05;;;;;;;6.63;4.25;;;26.00;50.90;;;;;;5073293;28;20020;-38
2022/08/25 21:14:31;;;;;;;;;;;26.10;51.00;;;;;;5075399;28;20020;-39
2022/08/25 21:16:57;;;;;;;7.40;4.53;;;26.00;51.10;;;;;;5072833;28;19904;-40
2022/08/25 21:19:25;;;;;;;9.93;5.03;;;25.90;51.20;;;;;;5074079;28;20074;-39
2022/08/25 21:21:50;;;;;;;7.45;4.82;;;25.90;51.30;;;;;;5074244;28;20032;-38
2022/08/25 21:24:18;;;;;;;7.90;5.43;;;25.90;51.40;;;;;;5073498;28;20479;-38
2022/08/25 21:26:51;;;;;;;6.35;4.68;;;25.80;51.50;;;;;;5074533;28;20036;-38
2022/08/25 21:29:19;;;;;;;10.40;4.75;;;25.90;51.60;;;;;;5074188;28;20035;-38
2022/08/25 21:31:46;;;;;;;9.93;5.20;;;25.80;51.70;;;;;;5073832;28;20071;-38
2022/08/25 21:34:12;;;;;;;8.10;5.20;;;25.80;51.80;;;;;;5073995;28;20020;-39
2022/08/25 21:36:38;;;;;;;6.32;4.88;;;25.80;51.90;;;;;;5074211;28;20465;-39
2022/08/25 21:39:04;;;;;;;12.23;4.60;;;25.70;52.00;;;;;;5073920;28;20036;-38
2022/08/25 21:41:32;;;;;;;6.68;4.25;;;25.70;52.10;;;;;;5073625;28;20033;-39
2022/08/25 21:44:00;;;;;;;9.45;4.47;;;25.70;52.20;;;;;;5074324;28;20020;-42
2022/08/25 21:46:28;;;;;;;10.40;5.53;;;25.60;52.40;;;;;;5073831;28;20021;-39
2022/08/25 21:48:55;;;;;;;11.02;4.90;;;25.50;52.50;;;;;;5073866;28;20456;-39
2022/08/25 21:51:33;;;;;;;7.30;5.28;;;25.50;52.50;;;;;;5073818;28;20443;-38
2022/08/25 21:54:08;;;;;;;8.60;6.00;;;25.50;52.80;;;;;;5073408;28;20104;-38
2022/08/25 21:56:41;;;;;;;8.80;6.22;;;25.40;52.80;;;;;;5074183;28;20033;-38
2022/08/25 21:59:11;;;;;;;8.98;5.85;;;25.40;53.20;;;;;;5073596;28;20546;-37
2022/08/25 22:01:37;;;;;;;11.70;5.95;;;25.30;53.90;;;;;;5073715;28;20016;-40
2022/08/25 22:04:04;;;;;;;10.02;5.20;;;25.30;53.50;;;;;;5073581;28;20063;-38
2022/08/25 22:06:31;;;;;;;8.13;5.63;;;25.20;54.00;;;;;;5073968;28;20024;-39
2022/08/25 22:09:00;;;;;;;8.70;4.70;;;25.20;54.30;;;;;;5072549;28;20028;-39
2022/08/25 22:11:27;;;;;;;7.60;4.90;;;25.10;54.80;;;;;;5073426;28;20032;-39
2022/08/25 22:13:53;;;;;;;15.60;5.82;;;25.00;54.80;;;;;;5071836;28;20044;-38
2022/08/25 22:16:20;;;;;;;9.70;5.47;;;25.20;54.70;;;;;;5072989;28;20021;-40
2022/08/25 22:18:46;;;;;;;6.55;5.28;;;25.10;54.70;;;;;;5073339;28;20103;-40
2022/08/25 22:21:13;;;;;;;5.10;4.45;;;25.00;54.90;;;;;;5072766;28;20032;-39
2022/08/25 22:23:39;;;;;;;7.80;4.90;;;24.90;55.30;;;;;;5073398;28;20029;-47
2022/08/25 22:26:05;;;;;;;8.10;5.18;;;24.80;55.50;;;;;;5071433;28;20032;-48
2022/08/25 22:28:31;;;;;;;12.65;5.93;;;24.80;55.70;;;;;;5073189;28;20020;-47
2022/08/25 22:31:01;;;;;;;11.02;5.72;;;24.80;56.00;;;;;;5073487;28;20417;-48
2022/08/25 22:33:27;;;;;;;10.77;5.00;;;24.70;57.00;;;;;;5073123;28;20043;-48
2022/08/25 22:35:53;;;;;;;11.52;5.90;;;24.60;57.00;;;;;;5073073;28;20067;-46
2022/08/25 22:38:19;;;;;;;12.80;6.30;;;24.60;57.50;;;;;;5073116;28;20052;-48
2022/08/25 22:40:44;;;;;;;8.93;4.93;;;24.50;57.90;;;;;;5072961;28;20031;-49
2022/08/25 22:43:10;;;;;;;11.32;5.80;;;24.40;58.00;;;;;;5073147;28;20121;-47
2022/08/25 22:45:36;;;;;;;10.15;6.32;;;24.30;57.90;;;;;;5071435;28;20028;-46
2022/08/25 22:48:04;;;;;;;10.55;5.70;;;24.30;58.50;;;;;;5072994;28;20025;-49
2022/08/25 22:50:32;;;;;;;8.05;5.80;;;24.30;58.80;;;;;;5072798;28;20071;-50
2022/08/25 22:52:58;;;;;;;10.45;6.15;;;24.20;59.20;;;;;;5072794;28;20042;-47
2022/08/25 22:55:24;;;;;;;6.90;5.55;;;24.20;59.70;;;;;;5072615;28;20028;-46
2022/08/25 22:57:50;;;;;;;9.18;5.47;;;24.10;60.00;;;;;;5072667;28;20021;-52
2022/08/25 23:00:16;;;;;;;8.85;6.05;;;24.10;60.30;;;;;;5072719;28;20539;-47
2022/08/25 23:02:43;;;;;;;9.88;6.93;;;24.00;60.60;;;;;;5072943;28;20021;-48
2022/08/25 23:05:10;;;;;;;10.73;6.25;;;24.00;60.60;;;;;;5073184;28;20020;-47
2022/08/25 23:07:38;;;;;;;12.13;5.57;;;23.90;60.80;;;;;;5073598;28;20024;-47
2022/08/25 23:10:06;;;;;;;5.85;5.15;;;23.90;61.00;;;;;;5072636;28;20025;-46
2022/08/25 23:12:32;;;;;;;12.57;5.82;;;23.80;61.00;;;;;;5072503;28;20025;-47
2022/08/25 23:14:58;;;;;;;10.10;5.53;;;23.80;61.00;;;;;;5072567;28;20364;-47
2022/08/25 23:17:25;;;;;;;11.70;6.38;;;23.80;60.80;;;;;;5072544;28;20050;-49
2022/08/25 23:19:51;;;;;;;9.20;5.93;;;23.80;61.10;;;;;;5072816;28;20427;-48
2022/08/25 23:22:17;;;;;;;9.45;5.80;;;23.80;61.20;;;;;;5072394;28;20020;-48
2022/08/25 23:24:47;;;;;;;13.73;6.28;;;23.70;61.30;;;;;;5071336;28;20024;-48
2022/08/25 23:27:15;;;;;;;11.60;5.53;;;23.70;61.40;;;;;;5072932;28;20025;-48
2022/08/25 23:29:43;;;;;;;8.52;5.50;;;23.60;61.60;;;;;;5072639;28;20032;-47
2022/08/25 23:32:12;;;;;;;7.53;5.22;;;23.50;61.80;;;;;;5072509;28;20032;-49
2022/08/25 23:34:40;;;;;;;8.35;6.47;;;23.50;61.80;;;;;;5072240;28;20028;-50
2022/08/25 23:37:06;;;;;;;8.07;5.45;;;23.50;61.80;;;;;;5072735;28;20017;-47
2022/08/25 23:39:33;;;;;;;8.90;6.13;;;23.50;61.80;;;;;;5076182;28;20056;-48
2022/08/25 23:41:58;;;;;;;5.20;4.70;;;23.50;61.70;;;;;;5074623;28;20024;-48
2022/08/25 23:44:24;;;;;;;7.25;5.57;;;23.50;61.80;;;;;;5075880;28;20532;-48
2022/08/25 23:46:51;;;;;;;8.35;4.88;;;23.50;61.70;;;;;;5075843;28;20028;-47
2022/08/25 23:49:20;;;;;;;9.10;5.40;;;23.50;62.10;;;;;;5075817;28;20361;-46
2022/08/25 23:51:49;;;;;;;7.45;6.15;;;23.50;62.40;;;;;;5075555;28;20040;-47
2022/08/25 23:54:16;;;;;;;13.32;7.55;;;23.40;62.20;;;;;;5075663;28;20042;-46
2022/08/25 23:56:43;;;;;;;9.05;5.55;;;23.40;62.40;;;;;;5076055;28;20372;-46
2022/08/25 23:59:09;;;;;;;9.18;6.35;;;23.30;62.70;;;;;;5076040;28;20047;-47
